sensor_id;sensor_type;location;lat;lon;timestamp;P1;durP1;ratioP1;P2;durP2;ratioP2
39890;SDS011;25564;53.312;9.790;2022-12-29T00:02:07;5.10;;;3.07;;
39890;SDS011;25564;53.312;9.790;2022-12-29T00:04:39;4.90;;;2.60;;
39890;SDS011;25564;53.312;9.790;2022-12-29T00:07:10;7.40;;;2.60;;
39890;SDS011;25564;53.312;9.790;2022-12-29T00:09:42;3.70;;;2.57;;
39890;SDS011;25564;53.312;9.790;2022-12-29T00:12:13;5.30;;;2.60;;
39890;SDS011;25564;53.312;9.790;2022-12-29T00:14:44;3.13;;;2.27;;
39890;SDS011;25564;53.312;9.790;2022-12-29T00:17:34;3.87;;;2.63;;
39890;SDS011;25564;53.312;9.790;2022-12-29T00:20:05;4.53;;;2.43;;
39890;SDS011;25564;53.312;9.790;2022-12-29T00:22:55;3.17;;;2.00;;
39890;SDS011;25564;53.312;9.790;2022-12-29T00:25:45;2.97;;;2.00;;
39890;SDS011;25564;53.312;9.790;2022-12-29T00:28:35;3.40;;;2.10;;
39890;SDS011;25564;53.312;9.790;2022-12-29T00:31:25;4.60;;;2.17;;
39890;SDS011;25564;53.312;9.790;2022-12-29T00:34:16;5.33;;;2.17;;
39890;SDS011;25564;53.312;9.790;2022-12-29T00:37:05;3.90;;;2.10;;
39890;SDS011;25564;53.312;9.790;2022-12-29T00:39:37;3.87;;;2.23;;
39890;SDS011;25564;53.312;9.790;2022-12-29T00:42:27;4.97;;;2.60;;
39890;SDS011;25564;53.312;9.790;2022-12-29T00:45:17;4.00;;;2.00;;
39890;SDS011;25564;53.312;9.790;2022-12-29T00:47:48;5.50;;;2.83;;
39890;SDS011;25564;53.312;9.790;2022-12-29T00:50:19;2.63;;;2.03;;
39890;SDS011;25564;53.312;9.790;2022-12-29T00:52:51;3.33;;;1.97;;
39890;SDS011;25564;53.312;9.790;2022-12-29T00:55:22;3.20;;;2.10;;
39890;SDS011;25564;53.312;9.790;2022-12-29T00:57:53;4.33;;;2.20;;
39890;SDS011;25564;53.312;9.790;2022-12-29T01:00:25;2.90;;;2.00;;
39890;SDS011;25564;53.312;9.790;2022-12-29T01:02:56;3.67;;;2.30;;
39890;SDS011;25564;53.312;9.790;2022-12-29T01:05:28;4.27;;;2.47;;
39890;SDS011;25564;53.312;9.790;2022-12-29T01:07:59;4.87;;;2.07;;
39890;SDS011;25564;53.312;9.790;2022-12-29T01:10:31;3.40;;;2.50;;
39890;SDS011;25564;53.312;9.790;2022-12-29T01:13:02;4.87;;;2.07;;
39890;SDS011;25564;53.312;9.790;2022-12-29T01:15:33;3.73;;;2.23;;
39890;SDS011;25564;53.312;9.790;2022-12-29T01:18:05;3.30;;;2.27;;
39890;SDS011;25564;53.312;9.790;2022-12-29T01:20:36;3.83;;;2.40;;
39890;SDS011;25564;53.312;9.790;2022-12-29T01:23:07;4.57;;;2.20;;
39890;SDS011;25564;53.312;9.790;2022-12-29T01:25:38;3.17;;;2.20;;
39890;SDS011;25564;53.312;9.790;2022-12-29T01:28:10;4.00;;;2.63;;
39890;SDS011;25564;53.312;9.790;2022-12-29T01:30:41;5.47;;;2.90;;
39890;SDS011;25564;53.312;9.790;2022-12-29T01:33:12;3.40;;;2.07;;
39890;SDS011;25564;53.312;9.790;2022-12-29T01:35:44;4.30;;;2.60;;
39890;SDS011;25564;53.312;9.790;2022-12-29T01:38:15;4.30;;;2.40;;
39890;SDS011;25564;53.312;9.790;2022-12-29T01:40:48;4.00;;;2.60;;
39890;SDS011;25564;53.312;9.790;2022-12-29T01:43:19;4.33;;;2.50;;
39890;SDS011;25564;53.312;9.790;2022-12-29T01:45:51;3.13;;;2.33;;
39890;SDS011;25564;53.312;9.790;2022-12-29T01:48:24;3.37;;;2.20;;
39890;SDS011;25564;53.312;9.790;2022-12-29T01:50:56;4.03;;;2.57;;
39890;SDS011;25564;53.312;9.790;2022-12-29T01:53:28;3.37;;;2.10;;
39890;SDS011;25564;53.312;9.790;2022-12-29T01:56:04;3.35;;;2.33;;
39890;SDS011;25564;53.312;9.790;2022-12-29T01:58:41;3.67;;;2.37;;
39890;SDS011;25564;53.312;9.790;2022-12-29T02:03:50;2.70;;;1.73;;
39890;SDS011;25564;53.312;9.790;2022-12-29T02:06:26;2.90;;;2.00;;
39890;SDS011;25564;53.312;9.790;2022-12-29T02:09:02;3.33;;;2.00;;
39890;SDS011;25564;53.312;9.790;2022-12-29T02:11:33;3.00;;;2.13;;
39890;SDS011;25564;53.312;9.790;2022-12-29T02:14:10;5.13;;;2.27;;
39890;SDS011;25564;53.312;9.790;2022-12-29T02:25:10;2.93;;;1.70;;
39890;SDS011;25564;53.312;9.790;2022-12-29T02:31:03;2.53;;;1.67;;
39890;SDS011;25564;53.312;9.790;2022-12-29T02:33:55;2.43;;;1.70;;
39890;SDS011;25564;53.312;9.790;2022-12-29T02:36:43;4.13;;;2.00;;
39890;SDS011;25564;53.312;9.790;2022-12-29T02:39:40;3.87;;;2.03;;
39890;SDS011;25564;53.312;9.790;2022-12-29T02:45:22;3.13;;;1.90;;
39890;SDS011;25564;53.312;9.790;2022-12-29T02:48:10;2.83;;;1.75;;
39890;SDS011;25564;53.312;9.790;2022-12-29T02:54:18;3.43;;;1.80;;
39890;SDS011;25564;53.312;9.790;2022-12-29T02:59:53;2.60;;;1.90;;
39890;SDS011;25564;53.312;9.790;2022-12-29T03:11:02;3.87;;;1.83;;
39890;SDS011;25564;53.312;9.790;2022-12-29T03:13:43;4.27;;;1.77;;
39890;SDS011;25564;53.312;9.790;2022-12-29T03:16:57;5.00;;;1.80;;
39890;SDS011;25564;53.312;9.790;2022-12-29T03:23:25;3.13;;;1.60;;
39890;SDS011;25564;53.312;9.790;2022-12-29T03:25:59;3.70;;;1.70;;
39890;SDS011;25564;53.312;9.790;2022-12-29T03:28:35;2.38;;;1.58;;
39890;SDS011;25564;53.312;9.790;2022-12-29T03:33:42;3.37;;;1.90;;
39890;SDS011;25564;53.312;9.790;2022-12-29T03:36:19;2.87;;;1.67;;
39890;SDS011;25564;53.312;9.790;2022-12-29T03:39:02;3.93;;;1.70;;
39890;SDS011;25564;53.312;9.790;2022-12-29T03:41:40;2.70;;;1.70;;
39890;SDS011;25564;53.312;9.790;2022-12-29T03:44:14;4.40;;;1.40;;
39890;SDS011;25564;53.312;9.790;2022-12-29T03:46:45;2.70;;;1.43;;
39890;SDS011;25564;53.312;9.790;2022-12-29T03:49:16;3.47;;;1.70;;
39890;SDS011;25564;53.312;9.790;2022-12-29T03:51:48;1.90;;;1.30;;
39890;SDS011;25564;53.312;9.790;2022-12-29T03:54:22;5.10;;;1.47;;
39890;SDS011;25564;53.312;9.790;2022-12-29T03:56:54;1.63;;;1.10;;
39890;SDS011;25564;53.312;9.790;2022-12-29T03:59:25;2.97;;;1.40;;
39890;SDS011;25564;53.312;9.790;2022-12-29T04:01:56;1.80;;;1.33;;
39890;SDS011;25564;53.312;9.790;2022-12-29T04:04:28;1.50;;;1.10;;
39890;SDS011;25564;53.312;9.790;2022-12-29T04:06:59;2.83;;;1.37;;
39890;SDS011;25564;53.312;9.790;2022-12-29T04:09:31;2.73;;;1.60;;
39890;SDS011;25564;53.312;9.790;2022-12-29T04:12:02;2.53;;;1.40;;
39890;SDS011;25564;53.312;9.790;2022-12-29T04:14:34;1.60;;;1.10;;
39890;SDS011;25564;53.312;9.790;2022-12-29T04:17:05;2.37;;;1.40;;
39890;SDS011;25564;53.312;9.790;2022-12-29T04:19:36;1.60;;;1.10;;
39890;SDS011;25564;53.312;9.790;2022-12-29T04:22:08;1.80;;;1.00;;
39890;SDS011;25564;53.312;9.790;2022-12-29T04:24:39;1.63;;;1.13;;
39890;SDS011;25564;53.312;9.790;2022-12-29T04:27:10;3.00;;;1.00;;
39890;SDS011;25564;53.312;9.790;2022-12-29T04:29:41;1.27;;;0.90;;
39890;SDS011;25564;53.312;9.790;2022-12-29T04:32:13;1.50;;;0.90;;
39890;SDS011;25564;53.312;9.790;2022-12-29T04:34:44;2.97;;;0.97;;
39890;SDS011;25564;53.312;9.790;2022-12-29T04:37:15;1.57;;;1.00;;
39890;SDS011;25564;53.312;9.790;2022-12-29T04:39:47;1.30;;;1.20;;
39890;SDS011;25564;53.312;9.790;2022-12-29T04:42:18;1.70;;;0.80;;
39890;SDS011;25564;53.312;9.790;2022-12-29T04:44:49;1.47;;;0.87;;
39890;SDS011;25564;53.312;9.790;2022-12-29T04:47:20;2.70;;;1.00;;
39890;SDS011;25564;53.312;9.790;2022-12-29T04:49:52;1.63;;;0.90;;
39890;SDS011;25564;53.312;9.790;2022-12-29T04:52:23;1.40;;;0.77;;
39890;SDS011;25564;53.312;9.790;2022-12-29T04:54:54;2.93;;;1.20;;
39890;SDS011;25564;53.312;9.790;2022-12-29T04:57:26;1.43;;;0.90;;
39890;SDS011;25564;53.312;9.790;2022-12-29T04:59:58;1.63;;;1.00;;
39890;SDS011;25564;53.312;9.790;2022-12-29T05:02:29;1.67;;;1.10;;
39890;SDS011;25564;53.312;9.790;2022-12-29T05:05:01;2.47;;;1.10;;
39890;SDS011;25564;53.312;9.790;2022-12-29T05:07:32;1.10;;;0.80;;
39890;SDS011;25564;53.312;9.790;2022-12-29T05:10:04;1.47;;;1.00;;
39890;SDS011;25564;53.312;9.790;2022-12-29T05:12:37;1.63;;;0.80;;
39890;SDS011;25564;53.312;9.790;2022-12-29T05:15:10;0.83;;;0.70;;
39890;SDS011;25564;53.312;9.790;2022-12-29T05:17:41;2.77;;;1.00;;
39890;SDS011;25564;53.312;9.790;2022-12-29T05:20:13;2.47;;;1.17;;
39890;SDS011;25564;53.312;9.790;2022-12-29T05:22:44;3.87;;;0.80;;
39890;SDS011;25564;53.312;9.790;2022-12-29T05:25:16;1.57;;;0.87;;
39890;SDS011;25564;53.312;9.790;2022-12-29T05:27:47;1.23;;;0.90;;
39890;SDS011;25564;53.312;9.790;2022-12-29T05:30:18;0.70;;;0.60;;
39890;SDS011;25564;53.312;9.790;2022-12-29T05:32:50;1.23;;;0.80;;
39890;SDS011;25564;53.312;9.790;2022-12-29T05:35:21;1.47;;;0.93;;
39890;SDS011;25564;53.312;9.790;2022-12-29T05:37:52;1.47;;;1.00;;
39890;SDS011;25564;53.312;9.790;2022-12-29T05:40:24;0.90;;;0.77;;
39890;SDS011;25564;53.312;9.790;2022-12-29T05:42:55;4.30;;;1.10;;
39890;SDS011;25564;53.312;9.790;2022-12-29T05:45:26;1.83;;;0.80;;
39890;SDS011;25564;53.312;9.790;2022-12-29T05:47:57;1.40;;;0.93;;
39890;SDS011;25564;53.312;9.790;2022-12-29T05:50:29;1.97;;;1.10;;
39890;SDS011;25564;53.312;9.790;2022-12-29T05:53:00;2.80;;;0.90;;
39890;SDS011;25564;53.312;9.790;2022-12-29T05:55:31;1.20;;;0.90;;
39890;SDS011;25564;53.312;9.790;2022-12-29T05:58:03;1.80;;;1.07;;
39890;SDS011;25564;53.312;9.790;2022-12-29T06:00:34;2.10;;;1.30;;
39890;SDS011;25564;53.312;9.790;2022-12-29T06:03:05;1.80;;;1.00;;
39890;SDS011;25564;53.312;9.790;2022-12-29T06:05:37;4.23;;;1.10;;
39890;SDS011;25564;53.312;9.790;2022-12-29T06:08:08;0.90;;;0.70;;
39890;SDS011;25564;53.312;9.790;2022-12-29T06:10:40;2.33;;;1.17;;
39890;SDS011;25564;53.312;9.790;2022-12-29T06:13:11;1.70;;;1.00;;
39890;SDS011;25564;53.312;9.790;2022-12-29T06:15:42;1.73;;;1.30;;
39890;SDS011;25564;53.312;9.790;2022-12-29T06:18:14;2.50;;;1.20;;
39890;SDS011;25564;53.312;9.790;2022-12-29T06:20:50;3.23;;;1.50;;
39890;SDS011;25564;53.312;9.790;2022-12-29T06:23:21;2.97;;;1.33;;
39890;SDS011;25564;53.312;9.790;2022-12-29T06:25:53;2.37;;;1.37;;
39890;SDS011;25564;53.312;9.790;2022-12-29T06:28:24;2.63;;;1.20;;
39890;SDS011;25564;53.312;9.790;2022-12-29T06:30:56;6.87;;;1.70;;
39890;SDS011;25564;53.312;9.790;2022-12-29T06:33:28;3.27;;;1.63;;
39890;SDS011;25564;53.312;9.790;2022-12-29T06:36:00;2.17;;;1.63;;
39890;SDS011;25564;53.312;9.790;2022-12-29T06:38:32;3.90;;;2.13;;
39890;SDS011;25564;53.312;9.790;2022-12-29T06:41:04;2.70;;;1.83;;
39890;SDS011;25564;53.312;9.790;2022-12-29T06:43:35;2.83;;;1.63;;
39890;SDS011;25564;53.312;9.790;2022-12-29T06:46:09;2.63;;;1.60;;
39890;SDS011;25564;53.312;9.790;2022-12-29T06:48:41;2.73;;;1.33;;
39890;SDS011;25564;53.312;9.790;2022-12-29T06:51:13;2.30;;;1.67;;
39890;SDS011;25564;53.312;9.790;2022-12-29T06:53:44;3.17;;;1.53;;
39890;SDS011;25564;53.312;9.790;2022-12-29T06:56:15;5.20;;;2.03;;
39890;SDS011;25564;53.312;9.790;2022-12-29T06:58:47;1.53;;;1.20;;
39890;SDS011;25564;53.312;9.790;2022-12-29T07:01:18;3.70;;;1.50;;
39890;SDS011;25564;53.312;9.790;2022-12-29T07:03:50;1.70;;;1.30;;
39890;SDS011;25564;53.312;9.790;2022-12-29T07:06:21;3.30;;;1.60;;
39890;SDS011;25564;53.312;9.790;2022-12-29T07:08:52;2.33;;;1.23;;
39890;SDS011;25564;53.312;9.790;2022-12-29T07:11:26;1.90;;;1.30;;
39890;SDS011;25564;53.312;9.790;2022-12-29T07:13:57;4.67;;;1.73;;
39890;SDS011;25564;53.312;9.790;2022-12-29T07:16:35;3.40;;;1.70;;
39890;SDS011;25564;53.312;9.790;2022-12-29T07:19:06;3.50;;;2.00;;
39890;SDS011;25564;53.312;9.790;2022-12-29T07:21:37;2.60;;;1.90;;
39890;SDS011;25564;53.312;9.790;2022-12-29T07:24:09;2.47;;;1.43;;
39890;SDS011;25564;53.312;9.790;2022-12-29T07:26:40;2.83;;;1.80;;
39890;SDS011;25564;53.312;9.790;2022-12-29T07:29:12;1.60;;;1.20;;
39890;SDS011;25564;53.312;9.790;2022-12-29T07:31:44;1.93;;;1.47;;
39890;SDS011;25564;53.312;9.790;2022-12-29T07:34:15;2.20;;;1.40;;
39890;SDS011;25564;53.312;9.790;2022-12-29T07:36:47;2.20;;;1.37;;
39890;SDS011;25564;53.312;9.790;2022-12-29T07:39:18;2.43;;;1.10;;
39890;SDS011;25564;53.312;9.790;2022-12-29T07:41:50;2.70;;;1.07;;
39890;SDS011;25564;53.312;9.790;2022-12-29T07:44:21;2.13;;;1.03;;
39890;SDS011;25564;53.312;9.790;2022-12-29T07:46:52;1.67;;;1.10;;
39890;SDS011;25564;53.312;9.790;2022-12-29T07:49:28;1.27;;;1.00;;
39890;SDS011;25564;53.312;9.790;2022-12-29T07:52:00;2.97;;;1.50;;
39890;SDS011;25564;53.312;9.790;2022-12-29T07:54:31;1.30;;;1.10;;
39890;SDS011;25564;53.312;9.790;2022-12-29T07:57:03;2.77;;;0.97;;
39890;SDS011;25564;53.312;9.790;2022-12-29T07:59:35;1.60;;;1.07;;
39890;SDS011;25564;53.312;9.790;2022-12-29T08:02:08;2.23;;;0.90;;
39890;SDS011;25564;53.312;9.790;2022-12-29T08:04:42;3.25;;;1.17;;
39890;SDS011;25564;53.312;9.790;2022-12-29T08:07:13;1.97;;;1.00;;
39890;SDS011;25564;53.312;9.790;2022-12-29T08:09:44;1.23;;;0.90;;
39890;SDS011;25564;53.312;9.790;2022-12-29T08:12:16;6.90;;;1.30;;
39890;SDS011;25564;53.312;9.790;2022-12-29T08:14:48;1.70;;;1.10;;
39890;SDS011;25564;53.312;9.790;2022-12-29T08:17:20;1.53;;;0.60;;
39890;SDS011;25564;53.312;9.790;2022-12-29T08:19:51;1.83;;;0.93;;
39890;SDS011;25564;53.312;9.790;2022-12-29T08:22:22;1.60;;;0.80;;
39890;SDS011;25564;53.312;9.790;2022-12-29T08:24:54;1.97;;;1.00;;
39890;SDS011;25564;53.312;9.790;2022-12-29T08:27:25;3.00;;;0.80;;
39890;SDS011;25564;53.312;9.790;2022-12-29T08:29:57;2.57;;;0.90;;
39890;SDS011;25564;53.312;9.790;2022-12-29T08:32:28;3.43;;;0.93;;
39890;SDS011;25564;53.312;9.790;2022-12-29T08:35:00;4.53;;;0.93;;
39890;SDS011;25564;53.312;9.790;2022-12-29T08:37:32;1.90;;;0.70;;
39890;SDS011;25564;53.312;9.790;2022-12-29T08:40:04;1.70;;;0.80;;
39890;SDS011;25564;53.312;9.790;2022-12-29T08:42:36;1.10;;;0.60;;
39890;SDS011;25564;53.312;9.790;2022-12-29T08:45:08;1.57;;;0.70;;
39890;SDS011;25564;53.312;9.790;2022-12-29T08:47:40;1.20;;;0.73;;
39890;SDS011;25564;53.312;9.790;2022-12-29T08:50:11;2.03;;;0.87;;
39890;SDS011;25564;53.312;9.790;2022-12-29T08:52:42;2.20;;;0.90;;
39890;SDS011;25564;53.312;9.790;2022-12-29T08:55:14;2.17;;;0.63;;
39890;SDS011;25564;53.312;9.790;2022-12-29T08:57:45;2.17;;;0.83;;
39890;SDS011;25564;53.312;9.790;2022-12-29T09:00:16;1.60;;;0.77;;
39890;SDS011;25564;53.312;9.790;2022-12-29T09:02:48;3.77;;;0.70;;
39890;SDS011;25564;53.312;9.790;2022-12-29T09:05:19;3.33;;;0.80;;
39890;SDS011;25564;53.312;9.790;2022-12-29T09:07:51;3.63;;;0.97;;
39890;SDS011;25564;53.312;9.790;2022-12-29T09:10:22;1.73;;;0.60;;
39890;SDS011;25564;53.312;9.790;2022-12-29T09:12:54;3.33;;;0.83;;
39890;SDS011;25564;53.312;9.790;2022-12-29T09:15:25;1.70;;;0.57;;
39890;SDS011;25564;53.312;9.790;2022-12-29T09:17:57;3.53;;;0.80;;
39890;SDS011;25564;53.312;9.790;2022-12-29T09:20:28;1.07;;;0.50;;
39890;SDS011;25564;53.312;9.790;2022-12-29T09:23:00;3.17;;;1.00;;
39890;SDS011;25564;53.312;9.790;2022-12-29T09:25:31;6.03;;;1.67;;
39890;SDS011;25564;53.312;9.790;2022-12-29T09:28:03;3.47;;;1.00;;
39890;SDS011;25564;53.312;9.790;2022-12-29T09:30:38;4.47;;;0.85;;
39890;SDS011;25564;53.312;9.790;2022-12-29T09:33:10;2.53;;;0.70;;
39890;SDS011;25564;53.312;9.790;2022-12-29T09:35:45;2.47;;;0.60;;
39890;SDS011;25564;53.312;9.790;2022-12-29T09:38:23;2.87;;;0.80;;
39890;SDS011;25564;53.312;9.790;2022-12-29T09:40:58;3.63;;;0.90;;
39890;SDS011;25564;53.312;9.790;2022-12-29T09:43:43;2.87;;;0.90;;
39890;SDS011;25564;53.312;9.790;2022-12-29T09:46:37;3.13;;;0.80;;
39890;SDS011;25564;53.312;9.790;2022-12-29T09:52:19;3.77;;;0.80;;
39890;SDS011;25564;53.312;9.790;2022-12-29T09:54:57;2.83;;;1.00;;
39890;SDS011;25564;53.312;9.790;2022-12-29T09:57:46;3.83;;;1.40;;
39890;SDS011;25564;53.312;9.790;2022-12-29T10:00:21;3.27;;;0.80;;
39890;SDS011;25564;53.312;9.790;2022-12-29T10:02:59;2.27;;;1.27;;
39890;SDS011;25564;53.312;9.790;2022-12-29T10:23:03;6.80;;;1.13;;
39890;SDS011;25564;53.312;9.790;2022-12-29T10:25:43;3.20;;;0.90;;
39890;SDS011;25564;53.312;9.790;2022-12-29T10:28:19;5.93;;;1.00;;
39890;SDS011;25564;53.312;9.790;2022-12-29T10:30:53;5.60;;;1.77;;
39890;SDS011;25564;53.312;9.790;2022-12-29T10:33:28;4.30;;;1.30;;
39890;SDS011;25564;53.312;9.790;2022-12-29T10:36:16;5.20;;;1.00;;
39890;SDS011;25564;53.312;9.790;2022-12-29T10:38:53;5.03;;;1.13;;
39890;SDS011;25564;53.312;9.790;2022-12-29T10:41:36;5.37;;;1.10;;
39890;SDS011;25564;53.312;9.790;2022-12-29T10:44:13;4.07;;;1.83;;
39890;SDS011;25564;53.312;9.790;2022-12-29T10:46:52;4.73;;;1.37;;
39890;SDS011;25564;53.312;9.790;2022-12-29T10:49:26;5.10;;;1.17;;
39890;SDS011;25564;53.312;9.790;2022-12-29T10:52:01;2.80;;;0.70;;
39890;SDS011;25564;53.312;9.790;2022-12-29T10:57:26;5.73;;;0.83;;
39890;SDS011;25564;53.312;9.790;2022-12-29T11:00:23;4.47;;;0.90;;
39890;SDS011;25564;53.312;9.790;2022-12-29T11:05:55;5.47;;;1.20;;
39890;SDS011;25564;53.312;9.790;2022-12-29T11:08:55;4.37;;;1.00;;
39890;SDS011;25564;53.312;9.790;2022-12-29T11:11:33;4.90;;;1.00;;
39890;SDS011;25564;53.312;9.790;2022-12-29T11:14:28;4.53;;;0.93;;
39890;SDS011;25564;53.312;9.790;2022-12-29T11:17:03;7.37;;;0.90;;
39890;SDS011;25564;53.312;9.790;2022-12-29T11:19:35;4.10;;;1.17;;
39890;SDS011;25564;53.312;9.790;2022-12-29T11:22:21;2.33;;;0.98;;
39890;SDS011;25564;53.312;9.790;2022-12-29T11:25:06;3.72;;;1.00;;
39890;SDS011;25564;53.312;9.790;2022-12-29T11:27:54;4.77;;;1.30;;
39890;SDS011;25564;53.312;9.790;2022-12-29T11:30:28;3.90;;;0.70;;
39890;SDS011;25564;53.312;9.790;2022-12-29T11:33:02;2.70;;;0.60;;
39890;SDS011;25564;53.312;9.790;2022-12-29T11:38:20;4.77;;;1.00;;
39890;SDS011;25564;53.312;9.790;2022-12-29T11:40:54;2.07;;;0.93;;
39890;SDS011;25564;53.312;9.790;2022-12-29T11:43:29;2.10;;;1.00;;
39890;SDS011;25564;53.312;9.790;2022-12-29T11:46:06;3.50;;;1.07;;
39890;SDS011;25564;53.312;9.790;2022-12-29T11:48:45;1.37;;;0.73;;
39890;SDS011;25564;53.312;9.790;2022-12-29T11:51:21;3.60;;;1.07;;
39890;SDS011;25564;53.312;9.790;2022-12-29T11:53:56;2.03;;;0.77;;
39890;SDS011;25564;53.312;9.790;2022-12-29T11:56:33;2.27;;;0.90;;
39890;SDS011;25564;53.312;9.790;2022-12-29T11:59:21;3.10;;;0.80;;
39890;SDS011;25564;53.312;9.790;2022-12-29T12:02:11;3.90;;;1.20;;
39890;SDS011;25564;53.312;9.790;2022-12-29T12:05:18;3.83;;;0.97;;
39890;SDS011;25564;53.312;9.790;2022-12-29T12:07:53;2.23;;;1.03;;
39890;SDS011;25564;53.312;9.790;2022-12-29T12:10:57;5.60;;;1.43;;
39890;SDS011;25564;53.312;9.790;2022-12-29T12:13:40;4.57;;;0.98;;
39890;SDS011;25564;53.312;9.790;2022-12-29T12:16:31;5.77;;;1.30;;
39890;SDS011;25564;53.312;9.790;2022-12-29T12:19:15;7.77;;;2.10;;
39890;SDS011;25564;53.312;9.790;2022-12-29T12:22:05;2.87;;;1.27;;
39890;SDS011;25564;53.312;9.790;2022-12-29T12:35:40;3.40;;;0.90;;
39890;SDS011;25564;53.312;9.790;2022-12-29T12:39:04;2.63;;;1.03;;
39890;SDS011;25564;53.312;9.790;2022-12-29T12:44:26;4.23;;;1.00;;
39890;SDS011;25564;53.312;9.790;2022-12-29T12:53:18;4.63;;;1.10;;
39890;SDS011;25564;53.312;9.790;2022-12-29T13:02:02;8.13;;;1.23;;
39890;SDS011;25564;53.312;9.790;2022-12-29T13:10:29;2.23;;;1.03;;
39890;SDS011;25564;53.312;9.790;2022-12-29T13:16:06;6.73;;;0.97;;
39890;SDS011;25564;53.312;9.790;2022-12-29T13:19:21;4.60;;;1.30;;
39890;SDS011;25564;53.312;9.790;2022-12-29T13:27:54;4.13;;;1.00;;
39890;SDS011;25564;53.312;9.790;2022-12-29T13:31:35;5.33;;;1.40;;
39890;SDS011;25564;53.312;9.790;2022-12-29T13:33:40;5.80;;;1.30;;
39890;SDS011;25564;53.312;9.790;2022-12-29T13:39:06;5.57;;;0.87;;
39890;SDS011;25564;53.312;9.790;2022-12-29T13:41:55;7.50;;;1.43;;
39890;SDS011;25564;53.312;9.790;2022-12-29T13:47:27;8.50;;;1.40;;
39890;SDS011;25564;53.312;9.790;2022-12-29T13:50:05;4.10;;;1.20;;
39890;SDS011;25564;53.312;9.790;2022-12-29T13:55:56;5.03;;;2.60;;
39890;SDS011;25564;53.312;9.790;2022-12-29T14:04:35;1.23;;;0.93;;
39890;SDS011;25564;53.312;9.790;2022-12-29T14:07:14;5.27;;;1.03;;
39890;SDS011;25564;53.312;9.790;2022-12-29T14:09:51;2.27;;;1.00;;
39890;SDS011;25564;53.312;9.790;2022-12-29T14:12:28;3.37;;;0.97;;
39890;SDS011;25564;53.312;9.790;2022-12-29T14:15:02;1.37;;;0.57;;
39890;SDS011;25564;53.312;9.790;2022-12-29T14:17:36;4.87;;;0.80;;
39890;SDS011;25564;53.312;9.790;2022-12-29T14:20:20;3.70;;;0.80;;
39890;SDS011;25564;53.312;9.790;2022-12-29T14:28:24;3.83;;;0.83;;
39890;SDS011;25564;53.312;9.790;2022-12-29T14:30:58;3.17;;;0.80;;
39890;SDS011;25564;53.312;9.790;2022-12-29T14:33:32;4.37;;;0.90;;
39890;SDS011;25564;53.312;9.790;2022-12-29T14:39:29;2.70;;;0.60;;
39890;SDS011;25564;53.312;9.790;2022-12-29T14:52:56;1.43;;;0.70;;
39890;SDS011;25564;53.312;9.790;2022-12-29T14:55:41;4.80;;;1.33;;
39890;SDS011;25564;53.312;9.790;2022-12-29T14:58:21;3.63;;;0.80;;
39890;SDS011;25564;53.312;9.790;2022-12-29T15:00:57;4.37;;;1.27;;
39890;SDS011;25564;53.312;9.790;2022-12-29T15:06:11;3.43;;;1.20;;
39890;SDS011;25564;53.312;9.790;2022-12-29T15:08:51;6.33;;;1.57;;
39890;SDS011;25564;53.312;9.790;2022-12-29T15:11:48;3.47;;;1.03;;
39890;SDS011;25564;53.312;9.790;2022-12-29T15:14:26;2.13;;;0.80;;
39890;SDS011;25564;53.312;9.790;2022-12-29T15:17:10;3.20;;;1.07;;
39890;SDS011;25564;53.312;9.790;2022-12-29T15:19:56;3.30;;;1.00;;
39890;SDS011;25564;53.312;9.790;2022-12-29T15:22:29;5.93;;;1.50;;
39890;SDS011;25564;53.312;9.790;2022-12-29T15:25:01;5.10;;;1.93;;
39890;SDS011;25564;53.312;9.790;2022-12-29T15:27:33;4.23;;;1.17;;
39890;SDS011;25564;53.312;9.790;2022-12-29T15:30:11;4.10;;;1.33;;
39890;SDS011;25564;53.312;9.790;2022-12-29T15:32:49;4.37;;;1.40;;
39890;SDS011;25564;53.312;9.790;2022-12-29T15:35:31;7.83;;;1.57;;
39890;SDS011;25564;53.312;9.790;2022-12-29T15:38:13;3.90;;;1.40;;
39890;SDS011;25564;53.312;9.790;2022-12-29T15:40:49;2.97;;;1.47;;
39890;SDS011;25564;53.312;9.790;2022-12-29T15:46:17;6.00;;;1.40;;
39890;SDS011;25564;53.312;9.790;2022-12-29T15:48:49;4.40;;;1.20;;
39890;SDS011;25564;53.312;9.790;2022-12-29T15:51:27;6.27;;;1.70;;
39890;SDS011;25564;53.312;9.790;2022-12-29T15:54:02;2.27;;;0.90;;
39890;SDS011;25564;53.312;9.790;2022-12-29T15:56:34;3.00;;;1.13;;
39890;SDS011;25564;53.312;9.790;2022-12-29T15:59:18;6.50;;;1.40;;
39890;SDS011;25564;53.312;9.790;2022-12-29T16:01:57;2.73;;;1.20;;
39890;SDS011;25564;53.312;9.790;2022-12-29T16:04:30;4.00;;;1.30;;
39890;SDS011;25564;53.312;9.790;2022-12-29T16:07:27;7.67;;;1.40;;
39890;SDS011;25564;53.312;9.790;2022-12-29T16:10:21;8.23;;;1.93;;
39890;SDS011;25564;53.312;9.790;2022-12-29T16:13:17;4.10;;;1.10;;
39890;SDS011;25564;53.312;9.790;2022-12-29T16:15:56;5.73;;;1.60;;
39890;SDS011;25564;53.312;9.790;2022-12-29T16:18:34;7.63;;;1.40;;
39890;SDS011;25564;53.312;9.790;2022-12-29T16:21:15;5.23;;;1.63;;
39890;SDS011;25564;53.312;9.790;2022-12-29T16:23:51;1.80;;;1.30;;
39890;SDS011;25564;53.312;9.790;2022-12-29T16:26:25;4.60;;;1.67;;
39890;SDS011;25564;53.312;9.790;2022-12-29T16:28:58;8.07;;;1.63;;
39890;SDS011;25564;53.312;9.790;2022-12-29T16:34:10;6.03;;;1.60;;
39890;SDS011;25564;53.312;9.790;2022-12-29T16:37:44;6.17;;;1.47;;
39890;SDS011;25564;53.312;9.790;2022-12-29T16:42:55;8.10;;;2.00;;
39890;SDS011;25564;53.312;9.790;2022-12-29T16:50:37;8.40;;;2.83;;
39890;SDS011;25564;53.312;9.790;2022-12-29T16:53:18;4.53;;;2.23;;
39890;SDS011;25564;53.312;9.790;2022-12-29T16:56:03;8.00;;;2.50;;
39890;SDS011;25564;53.312;9.790;2022-12-29T16:58:46;6.87;;;3.43;;
39890;SDS011;25564;53.312;9.790;2022-12-29T17:01:19;11.53;;;4.90;;
39890;SDS011;25564;53.312;9.790;2022-12-29T17:03:52;7.43;;;3.97;;
39890;SDS011;25564;53.312;9.790;2022-12-29T17:06:28;7.30;;;3.27;;
39890;SDS011;25564;53.312;9.790;2022-12-29T17:08:59;10.60;;;4.77;;
39890;SDS011;25564;53.312;9.790;2022-12-29T17:11:31;16.97;;;7.70;;
39890;SDS011;25564;53.312;9.790;2022-12-29T17:14:37;20.60;;;7.73;;
39890;SDS011;25564;53.312;9.790;2022-12-29T17:20:05;32.80;;;12.83;;
39890;SDS011;25564;53.312;9.790;2022-12-29T17:22:45;13.03;;;5.87;;
39890;SDS011;25564;53.312;9.790;2022-12-29T17:25:19;7.93;;;4.50;;
39890;SDS011;25564;53.312;9.790;2022-12-29T17:27:53;11.33;;;4.47;;
39890;SDS011;25564;53.312;9.790;2022-12-29T17:30:28;10.83;;;5.77;;
39890;SDS011;25564;53.312;9.790;2022-12-29T17:33:05;9.93;;;4.22;;
39890;SDS011;25564;53.312;9.790;2022-12-29T17:35:40;8.05;;;2.95;;
39890;SDS011;25564;53.312;9.790;2022-12-29T17:40:50;8.73;;;2.77;;
39890;SDS011;25564;53.312;9.790;2022-12-29T17:43:21;6.73;;;2.23;;
39890;SDS011;25564;53.312;9.790;2022-12-29T17:45:53;8.77;;;2.77;;
39890;SDS011;25564;53.312;9.790;2022-12-29T17:48:27;5.17;;;2.40;;
39890;SDS011;25564;53.312;9.790;2022-12-29T17:50:58;9.90;;;3.27;;
39890;SDS011;25564;53.312;9.790;2022-12-29T17:53:30;5.63;;;3.83;;
39890;SDS011;25564;53.312;9.790;2022-12-29T17:56:01;8.83;;;2.57;;
39890;SDS011;25564;53.312;9.790;2022-12-29T17:58:34;11.87;;;5.20;;
39890;SDS011;25564;53.312;9.790;2022-12-29T18:01:05;9.27;;;3.57;;
39890;SDS011;25564;53.312;9.790;2022-12-29T18:03:38;5.07;;;2.63;;
39890;SDS011;25564;53.312;9.790;2022-12-29T18:06:11;8.47;;;3.60;;
39890;SDS011;25564;53.312;9.790;2022-12-29T18:08:42;12.47;;;3.87;;
39890;SDS011;25564;53.312;9.790;2022-12-29T18:11:19;6.27;;;2.63;;
39890;SDS011;25564;53.312;9.790;2022-12-29T18:13:53;4.67;;;3.03;;
39890;SDS011;25564;53.312;9.790;2022-12-29T18:16:25;10.60;;;3.73;;
39890;SDS011;25564;53.312;9.790;2022-12-29T18:18:56;7.53;;;2.80;;
39890;SDS011;25564;53.312;9.790;2022-12-29T18:21:28;12.13;;;2.83;;
39890;SDS011;25564;53.312;9.790;2022-12-29T18:24:00;9.43;;;2.50;;
39890;SDS011;25564;53.312;9.790;2022-12-29T18:26:31;11.83;;;4.00;;